createdAt,value
2018-05-31T00:01:41.697Z,6.07
2018-05-31T00:04:09.075Z,5.90
2018-05-31T00:06:36.475Z,6.33
2018-05-31T00:09:03.896Z,6.30
2018-05-31T00:11:31.329Z,6.80
2018-05-31T00:13:58.749Z,6.50
2018-05-31T00:16:26.262Z,6.43
2018-05-31T00:18:53.667Z,6.57
2018-05-31T00:21:21.124Z,6.90
2018-05-31T00:23:48.531Z,6.80
2018-05-31T00:26:15.963Z,8.10
2018-05-31T00:28:43.437Z,6.70
2018-05-31T00:31:10.889Z,7.17
2018-05-31T00:33:38.301Z,6.90
2018-05-31T00:36:05.744Z,6.00
2018-05-31T00:38:33.148Z,6.67
2018-05-31T00:41:00.585Z,6.43
2018-05-31T00:43:28.013Z,5.93
2018-05-31T00:45:55.418Z,5.90
2018-05-31T00:48:22.860Z,5.93
2018-05-31T00:50:50.266Z,5.83
2018-05-31T00:53:17.688Z,5.90
2018-05-31T00:55:56.778Z,6.10
2018-05-31T00:58:24.242Z,5.90
2018-05-31T01:00:51.651Z,5.63
2018-05-31T01:03:19.089Z,5.90
2018-05-31T01:05:46.519Z,5.33
2018-05-31T01:08:13.951Z,5.90
2018-05-31T01:10:41.360Z,5.47
2018-05-31T01:13:08.793Z,5.57
2018-05-31T01:15:36.194Z,5.90
2018-05-31T01:18:03.629Z,5.60
2018-05-31T01:20:31.048Z,5.20
2018-05-31T01:22:58.507Z,7.00
2018-05-31T01:25:25.903Z,5.90
2018-05-31T01:27:53.343Z,6.70
2018-05-31T01:30:20.742Z,5.53
2018-05-31T01:32:48.397Z,6.33
2018-05-31T01:35:15.789Z,6.00
2018-05-31T01:37:43.238Z,6.43
2018-05-31T01:40:10.631Z,5.93
2018-05-31T01:42:38.046Z,6.50
2018-05-31T01:45:05.483Z,6.73
2018-05-31T01:47:32.900Z,6.20
2018-05-31T01:50:00.324Z,6.67
2018-05-31T01:52:27.785Z,6.50
2018-05-31T01:54:55.210Z,6.50
2018-05-31T01:57:22.646Z,6.20
2018-05-31T01:59:50.116Z,7.93
2018-05-31T02:02:17.570Z,6.53
2018-05-31T02:04:44.998Z,6.43
2018-05-31T02:07:12.425Z,7.20
2018-05-31T02:09:39.849Z,7.27
2018-05-31T02:12:07.306Z,7.20
2018-05-31T02:14:34.727Z,6.23
2018-05-31T02:17:02.128Z,8.03
2018-05-31T02:19:29.663Z,6.83
2018-05-31T02:21:57.057Z,6.80
2018-05-31T02:24:24.480Z,7.23
2018-05-31T02:26:51.888Z,6.50
2018-05-31T02:29:19.302Z,6.90
2018-05-31T02:31:46.764Z,6.43
2018-05-31T02:34:14.191Z,7.53
2018-05-31T02:36:41.609Z,6.23
2018-05-31T02:39:09.008Z,6.67
2018-05-31T02:41:36.455Z,8.37
2018-05-31T02:44:03.882Z,7.07
2018-05-31T02:46:31.323Z,6.60
2018-05-31T02:48:58.748Z,7.93
2018-05-31T02:51:26.158Z,7.40
2018-05-31T02:53:53.615Z,7.57
2018-05-31T02:56:21.040Z,7.37
2018-05-31T02:58:48.440Z,7.43
2018-05-31T03:01:15.864Z,7.30
2018-05-31T03:03:43.284Z,7.20
2018-05-31T03:06:10.695Z,7.53
2018-05-31T03:08:38.129Z,7.70
2018-05-31T03:11:05.556Z,6.80
2018-05-31T03:13:32.989Z,7.17
2018-05-31T03:16:00.390Z,7.23
2018-05-31T03:18:27.850Z,8.00
2018-05-31T03:20:55.267Z,6.30
2018-05-31T03:23:22.679Z,6.27
2018-05-31T03:25:50.093Z,6.80
2018-05-31T03:28:17.563Z,6.63
2018-05-31T03:30:44.956Z,6.50
2018-05-31T03:33:12.378Z,7.50
2018-05-31T03:35:39.775Z,7.57
2018-05-31T03:38:07.181Z,7.30
2018-05-31T03:40:34.615Z,7.33
2018-05-31T03:43:02.019Z,7.83
2018-05-31T03:45:29.451Z,7.07
2018-05-31T03:47:56.862Z,7.70
2018-05-31T03:50:24.306Z,6.80
2018-05-31T03:52:51.756Z,7.07
2018-05-31T03:55:19.192Z,6.97
2018-05-31T03:57:46.616Z,7.30
2018-05-31T04:00:14.089Z,7.27
2018-05-31T04:02:41.478Z,7.13
2018-05-31T04:05:08.968Z,6.77
2018-05-31T04:07:36.357Z,6.80
2018-05-31T04:10:04.066Z,6.30
2018-05-31T04:12:31.472Z,7.33
2018-05-31T04:14:58.900Z,7.50
2018-05-31T04:17:26.313Z,7.63
2018-05-31T04:19:53.738Z,7.80
2018-05-31T04:22:21.177Z,7.57
2018-05-31T04:24:48.575Z,7.00
2018-05-31T04:27:16.024Z,7.80
2018-05-31T04:29:43.423Z,7.23
2018-05-31T04:32:10.864Z,7.00
2018-05-31T04:34:38.275Z,8.10
2018-05-31T04:37:05.736Z,7.93
2018-05-31T04:39:33.149Z,8.50
2018-05-31T04:42:00.571Z,7.90
2018-05-31T04:44:27.998Z,6.93
2018-05-31T04:46:55.453Z,6.33
2018-05-31T04:49:22.859Z,7.07
2018-05-31T04:51:50.644Z,7.70
2018-05-31T04:54:18.061Z,6.93
2018-05-31T04:56:45.489Z,7.73
2018-05-31T04:59:12.923Z,7.50
2018-05-31T05:01:40.320Z,7.20
2018-05-31T05:04:07.782Z,7.77
2018-05-31T05:06:35.272Z,7.33
2018-05-31T05:09:02.702Z,6.30
2018-05-31T05:11:30.123Z,6.60
2018-05-31T05:13:57.543Z,6.20
2018-05-31T05:16:24.964Z,7.63
2018-05-31T05:18:52.425Z,6.50
2018-05-31T05:21:19.843Z,6.03
2018-05-31T05:23:47.553Z,5.57
2018-05-31T05:26:14.968Z,5.70
2018-05-31T05:28:42.358Z,6.03
2018-05-31T05:31:09.779Z,5.30
2018-05-31T05:33:37.204Z,6.33
2018-05-31T05:36:04.651Z,6.40
2018-05-31T05:38:32.055Z,5.63
2018-05-31T05:41:00.479Z,6.10
2018-05-31T05:43:27.901Z,5.40
2018-05-31T05:45:55.372Z,4.90
2018-05-31T05:48:22.800Z,6.53
2018-05-31T05:50:50.220Z,5.40
2018-05-31T05:53:17.941Z,5.07
2018-05-31T05:55:45.393Z,5.57
2018-05-31T05:58:12.847Z,5.07
2018-05-31T06:00:40.296Z,4.77
2018-05-31T06:03:07.708Z,5.10
2018-05-31T06:05:35.114Z,4.87
2018-05-31T06:08:02.599Z,4.90
2018-05-31T06:10:29.992Z,4.77
2018-05-31T06:12:57.417Z,4.80
2018-05-31T06:15:24.814Z,5.10
2018-05-31T06:17:52.236Z,6.27
2018-05-31T06:20:19.635Z,5.60
2018-05-31T06:22:47.059Z,5.23
2018-05-31T06:25:14.467Z,5.10
2018-05-31T06:27:41.900Z,6.10
2018-05-31T06:30:09.318Z,5.93
2018-05-31T06:32:36.732Z,4.93
2018-05-31T06:35:04.162Z,5.33
2018-05-31T06:37:31.543Z,5.70
2018-05-31T06:39:58.977Z,6.10
2018-05-31T06:42:26.393Z,7.00
2018-05-31T06:44:53.974Z,6.50
2018-05-31T06:47:21.376Z,6.43
2018-05-31T06:49:48.815Z,6.47
2018-05-31T06:52:16.412Z,5.60
2018-05-31T06:54:43.854Z,6.67
2018-05-31T06:57:11.254Z,6.70
2018-05-31T06:59:38.721Z,6.40
2018-05-31T07:02:06.143Z,6.90
2018-05-31T07:04:33.563Z,7.30
2018-05-31T07:07:00.984Z,5.70
2018-05-31T07:09:28.415Z,6.77
2018-05-31T07:11:55.846Z,6.13
2018-05-31T07:14:23.253Z,6.03
2018-05-31T07:16:50.671Z,5.60
2018-05-31T07:19:18.117Z,5.87
2018-05-31T07:21:45.559Z,6.20
2018-05-31T07:24:13.148Z,6.00
2018-05-31T07:26:40.545Z,6.20
2018-05-31T07:29:07.962Z,6.13
2018-05-31T07:31:35.391Z,5.90
2018-05-31T07:34:02.843Z,6.00
2018-05-31T07:36:30.328Z,6.37
2018-05-31T07:38:57.720Z,5.87
2018-05-31T07:41:25.147Z,5.33
2018-05-31T07:43:52.570Z,5.53
2018-05-31T07:46:20.027Z,5.50
2018-05-31T07:48:47.444Z,5.77
2018-05-31T07:51:14.866Z,5.60
2018-05-31T07:53:42.280Z,6.17
2018-05-31T07:56:09.710Z,6.20
2018-05-31T07:58:37.129Z,5.87
2018-05-31T08:01:04.586Z,5.93
2018-05-31T08:03:32.033Z,6.30
2018-05-31T08:05:59.469Z,6.20
2018-05-31T08:08:26.894Z,6.57
2018-05-31T08:10:54.354Z,6.10
2018-05-31T08:13:21.792Z,6.83
2018-05-31T08:15:49.225Z,6.67
2018-05-31T08:18:19.477Z,7.60
2018-05-31T08:20:46.959Z,7.63
2018-05-31T08:23:14.329Z,7.10
2018-05-31T08:25:41.763Z,7.30
2018-05-31T08:28:09.190Z,6.53
2018-05-31T08:30:36.654Z,7.80
2018-05-31T08:33:04.114Z,6.77
2018-05-31T08:35:31.545Z,6.50
2018-05-31T08:37:58.966Z,7.50
2018-05-31T08:40:26.404Z,7.47
2018-05-31T08:42:53.811Z,7.80
2018-05-31T08:45:21.240Z,7.67
2018-05-31T08:47:48.660Z,7.30
2018-05-31T08:50:16.081Z,7.43
2018-05-31T08:52:43.514Z,7.40
2018-05-31T08:55:10.969Z,6.77
2018-05-31T08:57:38.361Z,7.23
2018-05-31T09:00:05.816Z,7.60
2018-05-31T09:02:33.324Z,7.40
2018-05-31T09:05:00.861Z,7.27
2018-05-31T09:07:28.278Z,7.30
2018-05-31T09:09:55.779Z,7.77
2018-05-31T09:12:23.231Z,8.23
2018-05-31T09:14:50.629Z,7.07
2018-05-31T09:17:18.072Z,8.13
2018-05-31T09:19:45.570Z,7.90
2018-05-31T09:22:12.985Z,8.53
2018-05-31T09:24:40.448Z,8.77
2018-05-31T09:27:07.921Z,10.00
2018-05-31T09:29:35.367Z,10.03
2018-05-31T09:32:02.783Z,8.30
2018-05-31T09:34:31.025Z,8.60
2018-05-31T09:36:58.474Z,8.67
2018-05-31T09:39:25.891Z,9.50
2018-05-31T09:41:53.314Z,8.80
2018-05-31T09:44:20.812Z,9.07
2018-05-31T09:46:48.281Z,8.43
2018-05-31T09:49:15.740Z,9.67
2018-05-31T09:51:43.233Z,9.03
2018-05-31T09:54:10.649Z,9.03
2018-05-31T09:56:38.040Z,8.70
2018-05-31T09:59:05.482Z,8.77
2018-05-31T10:01:33.118Z,8.90
2018-05-31T10:04:00.623Z,8.80
2018-05-31T10:06:28.069Z,8.90
2018-05-31T10:08:55.579Z,8.80
2018-05-31T10:11:22.980Z,8.63
2018-05-31T10:13:50.420Z,9.33
2018-05-31T10:16:17.840Z,9.37
2018-05-31T10:18:45.296Z,9.10
2018-05-31T10:21:12.794Z,9.23
2018-05-31T10:23:40.228Z,8.43
2018-05-31T10:26:07.675Z,9.90
2018-05-31T10:28:35.143Z,9.17
2018-05-31T10:31:02.732Z,8.50
2018-05-31T10:33:30.196Z,9.03
2018-05-31T10:35:57.657Z,9.90
2018-05-31T10:38:25.124Z,10.67
2018-05-31T10:40:52.565Z,10.23
2018-05-31T10:43:20.045Z,9.37
2018-05-31T10:45:47.580Z,10.10
2018-05-31T10:48:15.059Z,9.60
2018-05-31T10:50:42.536Z,10.20
2018-05-31T10:53:10.063Z,10.33
2018-05-31T10:55:37.521Z,10.83
2018-05-31T10:58:04.931Z,10.77
2018-05-31T11:00:32.526Z,10.37
2018-05-31T11:03:00.031Z,10.77
2018-05-31T11:05:27.473Z,10.50
2018-05-31T11:07:54.920Z,10.70
2018-05-31T11:10:22.392Z,9.57
2018-05-31T11:12:49.844Z,11.17
2018-05-31T11:15:17.264Z,10.37
2018-05-31T11:17:44.756Z,11.17
2018-05-31T11:20:12.207Z,11.10
2018-05-31T11:22:39.680Z,11.37
2018-05-31T11:25:07.094Z,10.90
2018-05-31T11:27:34.530Z,9.73
2018-05-31T11:30:01.950Z,10.17
2018-05-31T11:32:29.483Z,10.67
2018-05-31T11:34:56.896Z,10.80
2018-05-31T11:37:24.419Z,9.83
2018-05-31T11:39:51.855Z,9.17
2018-05-31T11:42:19.253Z,9.73
2018-05-31T11:44:46.759Z,10.20
2018-05-31T11:47:14.169Z,10.10
2018-05-31T11:49:41.620Z,9.30
2018-05-31T11:52:09.048Z,9.70
2018-05-31T11:54:36.499Z,10.90
2018-05-31T11:57:04.005Z,10.00
2018-05-31T11:59:31.457Z,10.20
2018-05-31T12:01:58.850Z,9.60
2018-05-31T12:04:26.294Z,8.87
2018-05-31T12:06:53.742Z,9.23
2018-05-31T12:09:21.175Z,9.40
2018-05-31T12:11:48.599Z,9.00
2018-05-31T12:14:16.002Z,8.20
2018-05-31T12:16:43.425Z,7.50
2018-05-31T12:19:10.919Z,7.93
2018-05-31T12:21:38.372Z,6.93
2018-05-31T12:24:06.251Z,7.07
2018-05-31T12:26:33.690Z,6.27
2018-05-31T12:29:01.273Z,5.97
2018-05-31T12:31:28.763Z,6.13
2018-05-31T12:33:56.196Z,6.70
2018-05-31T12:36:23.623Z,6.70
2018-05-31T12:38:51.126Z,7.57
2018-05-31T12:41:18.527Z,8.67
2018-05-31T12:43:46.000Z,9.20
2018-05-31T12:46:13.503Z,8.30
2018-05-31T12:48:40.981Z,8.17
2018-05-31T12:51:08.391Z,7.90
2018-05-31T12:53:35.898Z,9.40
2018-05-31T12:56:03.460Z,7.93
2018-05-31T12:58:30.919Z,9.07
2018-05-31T13:00:58.332Z,8.30
2018-05-31T13:03:25.786Z,8.00
2018-05-31T13:05:53.234Z,8.37
2018-05-31T13:08:20.656Z,8.67
2018-05-31T13:10:48.096Z,8.70
2018-05-31T13:13:15.540Z,8.80
2018-05-31T13:15:42.953Z,9.87
2018-05-31T13:18:10.403Z,6.20
2018-05-31T13:20:37.825Z,5.30
2018-05-31T13:23:05.329Z,5.00
2018-05-31T13:25:32.784Z,4.43
2018-05-31T13:28:00.184Z,4.37
2018-05-31T13:30:27.630Z,4.83
2018-05-31T13:32:55.039Z,4.00
2018-05-31T13:35:22.557Z,3.80
2018-05-31T13:37:50.600Z,3.20
2018-05-31T13:40:18.191Z,3.90
2018-05-31T13:42:45.599Z,3.33
2018-05-31T13:45:13.045Z,2.97
2018-05-31T13:47:40.440Z,3.57
2018-05-31T13:50:07.899Z,3.50
2018-05-31T13:52:35.324Z,3.50
2018-05-31T13:55:02.752Z,3.67
2018-05-31T13:57:30.206Z,3.97
2018-05-31T13:59:57.631Z,3.83
2018-05-31T14:02:25.055Z,3.57
2018-05-31T14:04:52.475Z,3.40
2018-05-31T14:07:19.916Z,3.20
2018-05-31T14:09:47.332Z,4.57
2018-05-31T14:12:14.802Z,4.80
2018-05-31T14:14:42.241Z,3.90
2018-05-31T14:17:09.692Z,4.00
2018-05-31T14:19:37.131Z,4.30
2018-05-31T14:22:04.582Z,4.50
2018-05-31T14:24:32.024Z,5.90
2018-05-31T14:26:59.470Z,5.70
2018-05-31T14:29:26.895Z,6.03
2018-05-31T14:31:54.319Z,5.63
2018-05-31T14:34:21.776Z,6.23
2018-05-31T14:36:49.218Z,7.30
2018-05-31T14:39:16.665Z,8.13
2018-05-31T14:41:44.062Z,7.17
2018-05-31T14:44:11.539Z,6.33
2018-05-31T14:46:38.948Z,6.30
2018-05-31T14:49:06.515Z,5.97
2018-05-31T14:51:33.819Z,5.80
2018-05-31T14:54:01.243Z,5.77
2018-05-31T14:56:28.673Z,6.30
2018-05-31T14:58:56.173Z,6.37
2018-05-31T15:01:23.588Z,6.93
2018-05-31T15:03:51.105Z,6.17
2018-05-31T15:06:18.537Z,6.07
2018-05-31T15:08:45.960Z,5.40
2018-05-31T15:11:13.394Z,5.63
2018-05-31T15:13:40.848Z,5.70
2018-05-31T15:16:08.294Z,5.50
2018-05-31T15:18:35.741Z,4.90
2018-05-31T15:21:03.168Z,5.70
2018-05-31T15:23:30.593Z,5.60
2018-05-31T15:25:58.068Z,5.23
2018-05-31T15:28:25.628Z,6.03
2018-05-31T15:30:53.096Z,6.40
2018-05-31T15:33:20.552Z,7.00
2018-05-31T15:35:47.974Z,5.53
2018-05-31T15:38:15.430Z,6.60
2018-05-31T15:40:42.851Z,5.63
2018-05-31T15:43:10.265Z,5.70
2018-05-31T15:45:37.725Z,5.03
2018-05-31T15:48:05.160Z,5.73
2018-05-31T15:50:32.591Z,5.83
2018-05-31T15:53:00.042Z,5.60
2018-05-31T15:55:27.453Z,4.87
2018-05-31T15:57:54.909Z,5.90
2018-05-31T16:00:22.316Z,6.43
2018-05-31T16:02:49.750Z,6.07
2018-05-31T16:05:17.171Z,6.40
2018-05-31T16:07:44.618Z,7.00
2018-05-31T16:10:12.020Z,5.83
2018-05-31T16:12:39.458Z,6.20
2018-05-31T16:15:06.891Z,6.00
2018-05-31T16:17:34.296Z,6.20
2018-05-31T16:20:01.798Z,4.43
2018-05-31T16:22:29.155Z,5.00
2018-05-31T16:24:56.594Z,5.07
2018-05-31T16:27:24.035Z,4.90
2018-05-31T16:29:51.479Z,4.87
2018-05-31T16:32:18.891Z,4.47
2018-05-31T16:34:46.534Z,4.93
2018-05-31T16:37:14.102Z,5.30
2018-05-31T16:39:41.535Z,5.07
2018-05-31T16:42:09.005Z,5.03
2018-05-31T16:44:36.412Z,4.53
2018-05-31T16:47:03.977Z,5.00
2018-05-31T16:49:31.407Z,5.37
2018-05-31T16:51:58.836Z,4.67
2018-05-31T16:54:26.377Z,4.30
2018-05-31T16:56:53.939Z,4.93
2018-05-31T16:59:21.373Z,5.10
2018-05-31T17:01:48.765Z,5.40
2018-05-31T17:04:16.173Z,5.50
2018-05-31T17:06:43.615Z,5.10
2018-05-31T17:09:11.020Z,4.97
2018-05-31T17:11:38.450Z,5.43
2018-05-31T17:14:05.869Z,5.70
2018-05-31T17:16:33.332Z,5.07
2018-05-31T17:19:00.775Z,5.90
2018-05-31T17:21:28.208Z,5.50
2018-05-31T17:23:55.634Z,5.70
2018-05-31T17:26:23.054Z,5.90
2018-05-31T17:28:50.500Z,5.50
2018-05-31T17:31:17.924Z,5.83
2018-05-31T17:33:45.449Z,6.53
2018-05-31T17:36:12.888Z,6.33
2018-05-31T17:38:40.340Z,5.90
2018-05-31T17:41:07.768Z,6.73
2018-05-31T17:43:35.200Z,6.30
2018-05-31T17:46:02.617Z,6.33
2018-05-31T17:48:30.087Z,6.40
2018-05-31T17:50:57.505Z,5.80
2018-05-31T17:53:24.933Z,6.20
2018-05-31T17:55:52.342Z,6.53
2018-05-31T17:58:19.816Z,6.53
2018-05-31T18:00:47.272Z,6.47
2018-05-31T18:03:14.701Z,6.57
2018-05-31T18:05:42.127Z,7.20
2018-05-31T18:08:09.585Z,6.37
2018-05-31T18:10:37.010Z,6.37
2018-05-31T18:13:04.407Z,6.43
2018-05-31T18:15:31.830Z,6.70
2018-05-31T18:17:59.353Z,6.40
2018-05-31T18:20:26.810Z,6.10
2018-05-31T18:22:54.219Z,6.40
2018-05-31T18:25:21.644Z,6.87
2018-05-31T18:27:49.097Z,6.87
2018-05-31T18:30:16.509Z,6.33
2018-05-31T18:32:43.922Z,7.17
2018-05-31T18:35:13.226Z,6.50
2018-05-31T18:37:40.715Z,6.80
2018-05-31T18:40:08.117Z,6.13
2018-05-31T18:42:35.552Z,6.07
2018-05-31T18:45:02.987Z,6.10
2018-05-31T18:47:30.819Z,7.10
2018-05-31T20:11:55.372Z,8.10
2018-05-31T20:14:23.758Z,9.20
2018-05-31T20:16:51.128Z,8.03
2018-05-31T20:19:18.577Z,8.93
2018-05-31T20:21:46.000Z,9.13
2018-05-31T20:24:13.839Z,9.07
2018-05-31T20:26:41.310Z,9.53
2018-05-31T20:29:08.736Z,8.77
2018-05-31T20:31:36.184Z,9.10
2018-05-31T20:34:03.670Z,9.33
2018-05-31T20:36:31.068Z,9.87
2018-05-31T20:38:58.609Z,10.40
2018-05-31T20:41:26.044Z,9.20
2018-05-31T20:43:53.480Z,8.90
2018-05-31T20:46:21.147Z,9.30
2018-05-31T20:48:48.730Z,7.83
2018-05-31T20:51:16.170Z,8.20
2018-05-31T20:53:43.611Z,8.90
2018-05-31T20:56:11.032Z,7.83
2018-05-31T20:58:38.775Z,8.40
2018-05-31T21:01:06.620Z,8.00
2018-05-31T21:03:34.028Z,7.87
2018-05-31T21:06:01.553Z,6.77
2018-05-31T21:08:30.226Z,7.20
2018-05-31T21:10:57.954Z,7.47
2018-05-31T21:13:25.408Z,7.20
2018-05-31T21:15:52.884Z,7.00
2018-05-31T21:18:20.263Z,7.70
2018-05-31T21:20:47.724Z,8.00
2018-05-31T21:23:15.127Z,8.20
2018-05-31T21:25:42.567Z,7.40
2018-05-31T21:28:11.044Z,7.77
2018-05-31T21:30:38.523Z,7.60
2018-05-31T21:33:05.989Z,8.90
2018-05-31T21:35:33.489Z,7.80
2018-05-31T21:38:00.843Z,8.83
2018-05-31T21:40:28.293Z,8.70
2018-05-31T21:42:55.736Z,7.17
2018-05-31T21:45:23.162Z,7.90
2018-05-31T21:47:50.709Z,7.80
2018-05-31T21:50:18.144Z,7.50
2018-05-31T21:52:46.535Z,7.63
2018-05-31T21:55:13.927Z,8.40
2018-05-31T21:57:41.635Z,8.17
2018-05-31T22:00:09.205Z,8.33
2018-05-31T22:02:36.704Z,8.00
2018-05-31T22:05:04.393Z,8.60
2018-05-31T22:07:31.848Z,8.33
2018-05-31T22:09:59.285Z,7.60
2018-05-31T22:12:26.704Z,8.13
2018-05-31T22:14:54.135Z,8.10
2018-05-31T22:17:21.741Z,8.40
2018-05-31T22:19:49.190Z,8.27
2018-05-31T22:22:16.610Z,8.60
2018-05-31T22:24:44.066Z,8.30
2018-05-31T22:27:11.479Z,9.90
2018-05-31T22:29:38.930Z,9.73
2018-05-31T22:32:06.483Z,8.50
2018-05-31T22:34:34.254Z,8.63
2018-05-31T22:37:01.682Z,9.90
2018-05-31T22:39:29.100Z,9.40
2018-05-31T22:41:56.524Z,8.40
2018-05-31T22:44:23.944Z,9.17
2018-05-31T22:46:51.534Z,10.03
2018-05-31T22:49:18.947Z,10.13
2018-05-31T22:51:46.412Z,9.53
2018-05-31T22:54:13.850Z,8.93
2018-05-31T22:56:41.262Z,9.53
2018-05-31T22:59:08.691Z,9.97
2018-05-31T23:01:36.127Z,9.70
2018-05-31T23:04:03.536Z,10.33
2018-05-31T23:06:31.033Z,9.60
2018-05-31T23:08:58.454Z,9.90
2018-05-31T23:11:26.130Z,10.43
2018-05-31T23:13:53.806Z,10.37
2018-05-31T23:16:21.237Z,10.23
2018-05-31T23:18:48.675Z,10.10
2018-05-31T23:21:16.065Z,9.83
2018-05-31T23:23:43.497Z,11.30
2018-05-31T23:26:11.187Z,10.23
2018-05-31T23:28:38.608Z,10.60
2018-05-31T23:31:06.025Z,10.67
2018-05-31T23:33:33.487Z,10.10
2018-05-31T23:36:00.888Z,10.87
2018-05-31T23:38:28.325Z,9.53
2018-05-31T23:40:55.976Z,10.17
2018-05-31T23:43:23.407Z,10.23
2018-05-31T23:45:56.553Z,10.00
2018-05-31T23:48:24.054Z,9.10
2018-05-31T23:50:51.550Z,9.53
2018-05-31T23:53:18.974Z,9.30
2018-05-31T23:55:46.443Z,9.87
2018-05-31T23:58:13.832Z,10.40
